createdAt,value
2023-04-19T00:01:48.006Z,8.53
2023-04-19T00:06:42.134Z,5.18
2023-04-19T00:09:09.186Z,6.47
2023-04-19T00:11:35.560Z,6.03
2023-04-19T00:14:01.908Z,4.90
2023-04-19T00:16:28.380Z,5.07
2023-04-19T00:18:54.734Z,5.20
2023-04-19T00:21:21.087Z,6.68
2023-04-19T00:23:47.875Z,6.53
2023-04-19T00:26:15.784Z,5.43
2023-04-19T00:28:42.478Z,5.82
2023-04-19T00:31:08.970Z,4.65
2023-04-19T00:33:35.577Z,5.60
2023-04-19T00:36:02.286Z,5.57
2023-04-19T00:38:28.674Z,5.83
2023-04-19T00:40:55.532Z,6.65
2023-04-19T00:43:21.900Z,5.82
2023-04-19T00:45:49.584Z,6.40
2023-04-19T00:48:16.665Z,6.28
2023-04-19T00:50:44.781Z,5.83
2023-04-19T00:53:11.424Z,4.97
2023-04-19T00:55:40.934Z,8.15
2023-04-19T00:58:09.058Z,5.60
2023-04-19T01:00:36.752Z,5.97
2023-04-19T01:03:03.960Z,5.60
2023-04-19T01:05:30.971Z,6.15
2023-04-19T01:07:57.359Z,6.60
2023-04-19T01:10:23.702Z,5.80
2023-04-19T01:12:50.121Z,6.53
2023-04-19T01:15:16.535Z,6.07
2023-04-19T01:17:43.080Z,5.93
2023-04-19T01:20:09.741Z,5.93
2023-04-19T01:22:37.878Z,8.52
2023-04-19T01:25:04.887Z,7.78
2023-04-19T01:27:31.337Z,6.00
2023-04-19T01:29:57.713Z,5.85
2023-04-19T01:32:26.283Z,6.07
2023-04-19T01:34:53.053Z,6.68
2023-04-19T01:37:19.413Z,6.95
2023-04-19T01:39:45.822Z,5.43
2023-04-19T01:42:12.162Z,6.22
2023-04-19T01:44:38.557Z,6.63
2023-04-19T01:47:05.466Z,7.22
2023-04-19T01:49:31.994Z,8.48
2023-04-19T01:51:58.317Z,7.37
2023-04-19T01:54:24.778Z,8.05
2023-04-19T01:56:51.065Z,7.57
2023-04-19T01:59:17.701Z,7.38
2023-04-19T02:01:44.154Z,7.95
2023-04-19T02:04:10.610Z,7.60
2023-04-19T02:06:36.983Z,7.50
2023-04-19T02:09:03.522Z,8.43
2023-04-19T02:11:29.871Z,8.57
2023-04-19T02:13:56.312Z,7.25
2023-04-19T02:16:22.957Z,8.40
2023-04-19T02:18:49.360Z,8.50
2023-04-19T02:21:15.763Z,8.38
2023-04-19T02:23:42.097Z,8.48
2023-04-19T02:26:08.456Z,10.40
2023-04-19T02:28:34.894Z,9.20
2023-04-19T02:31:05.790Z,11.23
2023-04-19T02:33:32.327Z,11.13
2023-04-19T02:35:58.680Z,11.93
2023-04-19T02:38:25.162Z,11.30
2023-04-19T02:40:51.539Z,11.17
2023-04-19T02:43:17.904Z,11.30
2023-04-19T02:45:44.536Z,14.63
2023-04-19T02:48:11.040Z,11.45
2023-04-19T02:50:38.634Z,12.32
2023-04-19T02:53:05.424Z,13.07
2023-04-19T02:55:31.796Z,11.73
2023-04-19T02:57:58.141Z,12.02
2023-04-19T03:00:24.476Z,11.95
2023-04-19T03:02:51.229Z,11.65
2023-04-19T03:05:18.014Z,12.20
2023-04-19T03:07:44.776Z,12.23
2023-04-19T03:10:11.248Z,13.10
2023-04-19T03:12:37.672Z,13.48
2023-04-19T03:15:04.439Z,13.05
2023-04-19T03:17:30.855Z,12.37
2023-04-19T03:19:57.443Z,13.38
2023-04-19T03:22:23.815Z,13.20
2023-04-19T03:24:50.424Z,13.52
2023-04-19T03:27:16.757Z,13.77
2023-04-19T03:29:43.272Z,12.17
2023-04-19T03:32:09.642Z,14.48
2023-04-19T03:34:36.026Z,13.85
2023-04-19T03:37:02.408Z,13.23
2023-04-19T03:39:28.762Z,13.65
2023-04-19T03:41:55.136Z,14.00
2023-04-19T03:44:21.561Z,13.38
2023-04-19T03:46:48.760Z,14.82
2023-04-19T03:49:15.154Z,15.65
2023-04-19T03:51:41.611Z,15.52
2023-04-19T03:54:08.084Z,14.97
2023-04-19T03:56:34.526Z,15.15
2023-04-19T03:59:00.960Z,15.75
2023-04-19T04:01:27.984Z,15.40
2023-04-19T04:03:54.559Z,16.83
2023-04-19T04:06:21.102Z,16.97
2023-04-19T04:08:47.521Z,18.80
2023-04-19T04:11:13.917Z,16.70
2023-04-19T04:13:40.349Z,15.98
2023-04-19T04:16:06.842Z,16.48
2023-04-19T04:18:33.272Z,16.07
2023-04-19T04:20:59.617Z,15.77
2023-04-19T04:23:26.024Z,17.23
2023-04-19T04:26:02.571Z,17.13
2023-04-19T04:28:29.015Z,15.77
2023-04-19T04:31:00.162Z,14.97
2023-04-19T04:33:28.016Z,18.33
2023-04-19T04:35:55.296Z,16.50
2023-04-19T04:38:24.684Z,17.67
2023-04-19T04:40:53.652Z,17.92
2023-04-19T04:43:21.818Z,15.77
2023-04-19T04:45:48.541Z,16.90
2023-04-19T04:48:15.151Z,17.50
2023-04-19T04:50:41.971Z,15.70
2023-04-19T04:53:08.386Z,15.70
2023-04-19T04:55:35.189Z,16.00
2023-04-19T04:58:01.727Z,15.82
2023-04-19T05:00:28.100Z,15.73
2023-04-19T05:02:54.532Z,16.10
2023-04-19T05:05:20.979Z,15.48
2023-04-19T05:07:47.831Z,17.10
2023-04-19T05:10:14.279Z,16.15
2023-04-19T05:12:41.774Z,17.05
2023-04-19T05:15:08.815Z,14.05
2023-04-19T05:17:35.186Z,19.23
2023-04-19T05:20:01.750Z,15.63
2023-04-19T05:22:28.180Z,15.68
2023-04-19T05:24:55.157Z,17.67
2023-04-19T05:27:21.545Z,18.13
2023-04-19T05:29:47.953Z,16.83
2023-04-19T05:32:14.298Z,15.73
2023-04-19T05:34:40.654Z,17.45
2023-04-19T05:37:07.177Z,16.27
2023-04-19T05:39:33.590Z,16.35
2023-04-19T05:42:00.495Z,16.95
2023-04-19T05:44:26.895Z,15.03
2023-04-19T05:46:53.251Z,17.05
2023-04-19T05:49:19.625Z,16.25
2023-04-19T05:51:46.146Z,16.38
2023-04-19T05:54:14.591Z,16.88
2023-04-19T05:56:41.247Z,18.47
2023-04-19T05:59:08.349Z,17.65
2023-04-19T06:01:35.418Z,19.52
2023-04-19T06:04:02.048Z,16.77
2023-04-19T06:06:28.901Z,18.05
2023-04-19T06:08:55.442Z,15.63
2023-04-19T06:11:28.911Z,17.90
2023-04-19T06:13:58.067Z,17.20
2023-04-19T06:16:24.514Z,14.80
2023-04-19T06:18:51.034Z,17.05
2023-04-19T06:21:17.418Z,18.77
2023-04-19T06:23:43.755Z,17.02
2023-04-19T06:26:10.136Z,15.20
2023-04-19T06:28:36.686Z,18.52
2023-04-19T06:31:03.122Z,17.73
2023-04-19T06:33:29.595Z,17.37
2023-04-19T06:35:55.954Z,15.80
2023-04-19T06:38:22.358Z,16.95
2023-04-19T06:40:48.761Z,15.30
2023-04-19T06:43:15.109Z,17.95
2023-04-19T06:45:41.647Z,16.97
2023-04-19T06:48:08.067Z,17.33
2023-04-19T06:50:34.626Z,17.20
2023-04-19T06:53:02.288Z,15.80
2023-04-19T06:55:30.570Z,16.63
2023-04-19T06:57:56.924Z,17.90
2023-04-19T07:00:23.375Z,15.15
2023-04-19T07:02:52.779Z,15.23
2023-04-19T07:05:19.302Z,12.55
2023-04-19T07:07:45.639Z,15.65
2023-04-19T07:10:12.834Z,14.27
2023-04-19T07:12:39.200Z,13.20
2023-04-19T07:15:06.103Z,14.63
2023-04-19T07:17:34.818Z,12.65
2023-04-19T07:20:01.208Z,12.52
2023-04-19T07:22:27.589Z,12.23
2023-04-19T07:24:54.248Z,13.20
2023-04-19T07:27:20.880Z,11.48
2023-04-19T07:29:47.278Z,11.13
2023-04-19T07:32:16.301Z,14.57
2023-04-19T07:34:43.534Z,12.97
2023-04-19T07:37:10.351Z,12.10
2023-04-19T07:39:36.713Z,12.20
2023-04-19T07:42:03.137Z,10.60
2023-04-19T07:44:29.601Z,9.55
2023-04-19T07:46:56.147Z,9.20
2023-04-19T07:49:22.729Z,10.13
2023-04-19T07:51:49.410Z,9.65
2023-04-19T07:54:20.165Z,9.95
2023-04-19T07:56:46.793Z,10.13
2023-04-19T07:59:13.148Z,7.97
2023-04-19T08:01:39.651Z,8.25
2023-04-19T08:04:06.670Z,7.57
2023-04-19T08:06:33.441Z,9.00
2023-04-19T08:08:59.790Z,7.68
2023-04-19T08:11:26.230Z,6.67
2023-04-19T08:14:04.574Z,8.15
2023-04-19T08:19:05.412Z,6.57
2023-04-19T08:21:40.720Z,7.50
2023-04-19T08:24:08.248Z,7.93
2023-04-19T08:26:34.836Z,8.13
2023-04-19T08:29:01.177Z,7.50
2023-04-19T08:31:27.560Z,7.28
2023-04-19T08:33:53.972Z,8.40
2023-04-19T08:36:25.554Z,8.60
2023-04-19T08:39:05.689Z,7.40
2023-04-19T08:41:36.863Z,7.82
2023-04-19T08:44:04.504Z,7.70
2023-04-19T08:46:31.710Z,9.45
2023-04-19T08:48:59.676Z,10.17
2023-04-19T08:51:27.396Z,10.50
2023-04-19T08:53:56.132Z,7.47
2023-04-19T08:56:32.304Z,11.18
2023-04-19T08:59:17.596Z,6.90
2023-04-19T09:01:45.428Z,7.23
2023-04-19T09:04:34.563Z,7.85
2023-04-19T09:06:58.349Z,8.48
2023-04-19T09:11:58.168Z,6.35
2023-04-19T09:14:27.237Z,7.13
2023-04-19T09:16:54.142Z,7.28
2023-04-19T09:19:24.694Z,6.55
2023-04-19T09:21:54.203Z,8.43
2023-04-19T09:25:02.622Z,8.20
2023-04-19T09:27:30.424Z,10.43
2023-04-19T09:29:59.128Z,6.22
2023-04-19T09:32:26.430Z,6.35
2023-04-19T09:34:56.701Z,7.43
2023-04-19T09:39:53.423Z,8.03
2023-04-19T09:42:36.009Z,8.95
2023-04-19T09:47:36.801Z,6.22
2023-04-19T09:50:21.950Z,8.80
2023-04-19T09:52:50.209Z,7.73
2023-04-19T09:55:26.841Z,7.43
2023-04-19T09:57:54.967Z,6.43
2023-04-19T10:00:22.840Z,6.13
2023-04-19T10:02:57.985Z,6.30
2023-04-19T10:05:25.860Z,6.07
2023-04-19T10:07:55.691Z,5.53
2023-04-19T10:10:40.451Z,6.95
2023-04-19T10:13:19.770Z,8.10
2023-04-19T10:15:52.747Z,7.72
2023-04-19T10:18:24.067Z,6.67
2023-04-19T10:20:59.948Z,7.70
2023-04-19T10:23:26.670Z,5.60
2023-04-19T10:25:57.785Z,6.57
2023-04-19T10:28:24.540Z,6.38
2023-04-19T10:31:02.575Z,5.73
2023-04-19T10:33:34.174Z,5.85
2023-04-19T10:36:01.536Z,7.15
2023-04-19T10:38:43.061Z,6.28
2023-04-19T10:41:15.457Z,7.22
2023-04-19T10:43:55.597Z,7.13
2023-04-19T10:46:22.065Z,7.35
2023-04-19T10:48:53.229Z,6.88
2023-04-19T10:51:27.881Z,6.45
2023-04-19T10:53:58.416Z,6.22
2023-04-19T10:56:33.896Z,5.87
2023-04-19T10:59:00.257Z,6.10
2023-04-19T11:01:39.790Z,7.15
2023-04-19T11:04:07.689Z,6.65
2023-04-19T11:06:35.017Z,6.57
2023-04-19T11:09:03.113Z,8.33
2023-04-19T11:11:33.566Z,6.25
2023-04-19T11:14:02.635Z,8.15
2023-04-19T11:16:44.478Z,7.00
2023-04-19T11:19:16.504Z,6.60
2023-04-19T11:21:43.254Z,5.97
2023-04-19T11:24:09.998Z,6.40
2023-04-19T11:26:36.408Z,6.45
2023-04-19T11:29:03.307Z,6.50
2023-04-19T11:31:32.564Z,7.65
2023-04-19T11:34:00.246Z,6.27
2023-04-19T11:36:26.982Z,7.10
2023-04-19T11:38:54.037Z,6.45
2023-04-19T11:41:20.837Z,6.22
2023-04-19T11:43:48.355Z,7.55
2023-04-19T11:46:15.060Z,5.97
2023-04-19T11:48:52.416Z,6.75
2023-04-19T11:51:19.284Z,6.38
2023-04-19T11:53:46.130Z,5.97
2023-04-19T11:56:12.628Z,5.40
2023-04-19T11:58:45.535Z,5.70
2023-04-19T12:01:13.403Z,6.00
2023-04-19T12:03:46.457Z,6.05
2023-04-19T12:06:34.667Z,5.90
2023-04-19T12:09:08.130Z,6.57
2023-04-19T12:11:49.965Z,6.77
2023-04-19T12:14:19.869Z,7.38
2023-04-19T12:16:46.396Z,8.40
2023-04-19T12:19:18.757Z,6.63
2023-04-19T12:21:46.404Z,8.05
2023-04-19T12:24:15.646Z,5.37
2023-04-19T12:26:56.343Z,6.93
2023-04-19T12:29:29.202Z,5.00
2023-04-19T12:31:55.744Z,5.63
2023-04-19T12:34:22.162Z,5.80
2023-04-19T12:36:48.534Z,6.73
2023-04-19T12:39:15.071Z,4.93
2023-04-19T12:41:41.601Z,8.30
2023-04-19T12:44:07.976Z,6.72
2023-04-19T12:46:34.440Z,6.70
2023-04-19T12:49:00.850Z,4.83
2023-04-19T12:51:27.925Z,5.63
2023-04-19T12:53:54.328Z,4.95
2023-04-19T12:56:21.246Z,6.13
2023-04-19T12:58:47.703Z,6.38
2023-04-19T13:01:14.083Z,5.30
2023-04-19T13:03:40.668Z,3.90
2023-04-19T13:06:07.193Z,4.40
2023-04-19T13:08:43.285Z,5.32
2023-04-19T13:11:12.512Z,5.68
2023-04-19T13:13:38.888Z,5.40
2023-04-19T13:16:07.703Z,4.88
2023-04-19T13:18:34.178Z,3.20
2023-04-19T13:21:00.541Z,4.65
2023-04-19T13:23:26.905Z,3.40
2023-04-19T13:25:53.236Z,8.57
2023-04-19T13:28:19.589Z,5.53
2023-04-19T13:30:45.960Z,8.38
2023-04-19T13:33:12.351Z,4.95
2023-04-19T13:35:38.707Z,4.15
2023-04-19T13:38:05.125Z,4.57
2023-04-19T13:40:31.466Z,4.55
2023-04-19T13:42:57.962Z,2.70
2023-04-19T13:45:24.310Z,4.90
2023-04-19T13:47:50.714Z,3.08
2023-04-19T13:50:17.086Z,3.17
2023-04-19T13:52:43.513Z,2.92
2023-04-19T13:55:09.887Z,3.83
2023-04-19T13:57:36.383Z,3.17
2023-04-19T14:00:02.823Z,5.07
2023-04-19T14:02:29.423Z,2.77
2023-04-19T14:04:58.825Z,2.33
2023-04-19T14:07:25.263Z,3.15
2023-04-19T14:09:51.772Z,3.70
2023-04-19T14:12:18.151Z,3.75
2023-04-19T14:14:44.559Z,2.40
2023-04-19T14:17:10.954Z,1.85
2023-04-19T14:19:37.866Z,2.75
2023-04-19T14:22:04.310Z,2.60
2023-04-19T14:24:30.768Z,3.00
2023-04-19T14:29:29.809Z,3.05
2023-04-19T14:31:56.236Z,2.80
2023-04-19T14:34:22.641Z,2.80
2023-04-19T14:36:51.020Z,4.18
2023-04-19T14:39:18.120Z,2.60
2023-04-19T14:41:44.855Z,3.47
2023-04-19T14:44:11.204Z,4.88
2023-04-19T14:46:37.552Z,2.70
2023-04-19T14:49:05.814Z,3.53
2023-04-19T14:51:32.545Z,5.53
2023-04-19T14:53:59.353Z,2.70
2023-04-19T14:56:25.755Z,3.38
2023-04-19T14:58:53.302Z,3.95
2023-04-19T15:01:19.914Z,3.60
2023-04-19T15:03:46.634Z,2.67
2023-04-19T15:06:13.358Z,3.63
2023-04-19T15:08:41.113Z,3.13
2023-04-19T15:11:07.444Z,2.47
2023-04-19T15:13:35.578Z,2.08
2023-04-19T15:16:03.826Z,2.87
2023-04-19T15:18:30.584Z,3.45
2023-04-19T15:20:56.941Z,2.38
2023-04-19T15:23:24.455Z,5.60
2023-04-19T15:25:52.192Z,2.45
2023-04-19T15:28:18.571Z,3.30
2023-04-19T15:30:45.389Z,3.28
2023-04-19T15:33:11.824Z,3.08
2023-04-19T15:35:38.237Z,5.75
2023-04-19T15:38:04.622Z,3.83
2023-04-19T15:40:31.794Z,4.80
2023-04-19T15:42:58.135Z,3.22
2023-04-19T15:45:25.888Z,2.75
2023-04-19T15:47:52.242Z,4.13
2023-04-19T15:50:18.689Z,2.17
2023-04-19T15:52:45.040Z,3.53
2023-04-19T15:55:11.435Z,3.17
2023-04-19T15:57:37.805Z,3.38
2023-04-19T16:00:06.182Z,4.10
2023-04-19T16:02:33.702Z,2.53
2023-04-19T16:05:00.446Z,4.47
2023-04-19T16:07:26.976Z,3.45
2023-04-19T16:09:53.349Z,2.90
2023-04-19T16:12:19.823Z,3.20
2023-04-19T16:14:46.189Z,4.03
2023-04-19T16:17:12.528Z,5.00
2023-04-19T16:19:38.887Z,4.18
2023-04-19T16:22:05.623Z,4.82
2023-04-19T16:24:32.006Z,4.38
2023-04-19T16:26:58.450Z,3.58
2023-04-19T16:29:24.950Z,5.03
2023-04-19T16:31:52.302Z,3.38
2023-04-19T16:34:19.770Z,3.30
2023-04-19T16:36:46.164Z,5.00
2023-04-19T16:39:12.519Z,5.20
2023-04-19T16:41:38.891Z,3.97
2023-04-19T16:44:05.644Z,4.13
2023-04-19T16:46:32.106Z,4.28
2023-04-19T16:48:59.121Z,4.80
2023-04-19T16:51:25.465Z,4.28
2023-04-19T16:53:52.992Z,2.83
2023-04-19T16:56:19.457Z,3.78
2023-04-19T16:58:46.385Z,3.65
2023-04-19T17:01:13.613Z,3.45
2023-04-19T17:03:40.167Z,3.40
2023-04-19T17:06:06.958Z,7.93
2023-04-19T17:08:33.414Z,4.53
2023-04-19T17:10:59.999Z,4.05
2023-04-19T17:13:26.868Z,5.25
2023-04-19T17:15:53.237Z,3.58
2023-04-19T17:18:19.630Z,3.77
2023-04-19T17:20:46.153Z,4.20
2023-04-19T17:23:12.644Z,4.68
2023-04-19T17:25:39.015Z,3.35
2023-04-19T17:28:05.890Z,4.18
2023-04-19T17:30:32.492Z,3.87
2023-04-19T17:32:58.884Z,4.10
2023-04-19T17:35:28.215Z,3.28
2023-04-19T17:37:54.608Z,3.55
2023-04-19T17:40:21.517Z,4.22
2023-04-19T17:42:47.870Z,3.23
2023-04-19T17:45:14.308Z,3.33
2023-04-19T17:47:40.987Z,3.58
2023-04-19T17:50:10.121Z,4.68
2023-04-19T17:52:36.508Z,3.58
2023-04-19T17:55:04.650Z,3.43
2023-04-19T17:57:33.549Z,3.15
2023-04-19T18:00:01.076Z,2.90
2023-04-19T18:02:27.653Z,3.55
2023-04-19T18:04:54.190Z,3.83
2023-04-19T18:07:20.592Z,4.03
2023-04-19T18:09:46.957Z,4.65
2023-04-19T18:12:13.282Z,4.20
2023-04-19T18:14:39.644Z,3.75
2023-04-19T18:17:06.336Z,4.40
2023-04-19T18:19:32.817Z,4.23
2023-04-19T18:21:59.440Z,3.42
2023-04-19T18:24:25.865Z,3.67
2023-04-19T18:26:52.671Z,4.88
2023-04-19T18:29:20.742Z,4.35
2023-04-19T18:31:47.121Z,4.20
2023-04-19T18:34:13.837Z,4.43
2023-04-19T18:36:40.235Z,3.08
2023-04-19T18:39:06.582Z,3.88
2023-04-19T18:41:33.041Z,3.65
2023-04-19T18:44:29.573Z,3.57
2023-04-19T18:46:45.714Z,3.47
2023-04-19T18:49:12.122Z,3.33
2023-04-19T18:51:38.887Z,2.28
2023-04-19T18:54:05.257Z,2.95
2023-04-19T18:57:10.027Z,3.00
2023-04-19T18:59:18.994Z,5.03
2023-04-19T19:01:45.784Z,3.20
2023-04-19T19:04:37.416Z,5.28
2023-04-19T19:07:18.017Z,2.42
2023-04-19T19:09:56.196Z,2.43
2023-04-19T19:12:22.963Z,2.63
2023-04-19T19:14:49.333Z,2.83
2023-04-19T19:17:15.914Z,5.53
2023-04-19T19:19:42.274Z,4.15
2023-04-19T19:22:22.456Z,4.40
2023-04-19T19:24:51.990Z,4.13
2023-04-19T19:27:18.371Z,5.78
2023-04-19T19:29:45.328Z,5.35
2023-04-19T19:32:11.782Z,4.95
2023-04-19T19:34:51.249Z,3.27
2023-04-19T19:37:20.870Z,3.00
2023-04-19T19:39:47.201Z,3.10
2023-04-19T19:42:16.558Z,3.00
2023-04-19T19:44:43.389Z,2.67
2023-04-19T19:47:10.947Z,2.87
2023-04-19T19:52:07.186Z,3.72
2023-04-19T19:54:33.678Z,4.03
2023-04-19T19:57:57.318Z,3.05
2023-04-19T19:59:51.561Z,3.60
2023-04-19T20:02:21.990Z,5.32
2023-04-19T20:04:48.937Z,2.80
2023-04-19T20:09:45.388Z,2.63
2023-04-19T20:12:13.455Z,5.33
2023-04-19T20:14:40.537Z,4.10
2023-04-19T20:17:07.181Z,4.40
2023-04-19T20:19:33.977Z,3.85
2023-04-19T20:22:00.491Z,3.90
2023-04-19T20:24:26.980Z,3.07
2023-04-19T20:26:53.450Z,3.55
2023-04-19T20:29:19.815Z,3.92
2023-04-19T20:31:46.282Z,2.22
2023-04-19T20:34:12.653Z,3.33
2023-04-19T20:36:40.256Z,5.33
2023-04-19T20:39:09.577Z,3.75
2023-04-19T20:41:36.283Z,4.78
2023-04-19T20:44:03.027Z,7.55
2023-04-19T20:46:29.608Z,4.20
2023-04-19T20:48:56.253Z,4.50
2023-04-19T20:51:22.682Z,7.43
2023-04-19T20:53:49.071Z,9.63
2023-04-19T20:56:15.485Z,7.43
2023-04-19T20:58:41.890Z,5.57
2023-04-19T21:01:08.531Z,5.87
2023-04-19T21:03:35.069Z,5.93
2023-04-19T21:06:01.572Z,4.32
2023-04-19T21:08:27.950Z,5.03
2023-04-19T21:10:54.371Z,3.03
2023-04-19T21:13:20.698Z,3.47
2023-04-19T21:15:47.128Z,3.63
2023-04-19T21:18:13.519Z,4.88
2023-04-19T21:20:39.927Z,3.35
2023-04-19T21:23:06.665Z,4.13
2023-04-19T21:25:33.039Z,4.77
2023-04-19T21:27:59.432Z,3.50
2023-04-19T21:30:25.867Z,5.22
2023-04-19T21:32:52.948Z,4.40
2023-04-19T21:35:19.707Z,4.75
2023-04-19T21:37:46.031Z,3.73
2023-04-19T21:40:12.643Z,4.22
2023-04-19T21:42:39.087Z,3.88
2023-04-19T21:45:06.458Z,3.13
2023-04-19T21:47:32.879Z,4.43
2023-04-19T21:49:59.299Z,4.77
2023-04-19T21:52:25.660Z,4.50
2023-04-19T21:54:52.011Z,5.50
2023-04-19T21:57:21.874Z,4.07
2023-04-19T21:59:48.283Z,4.63
2023-04-19T22:02:14.777Z,3.37
2023-04-19T22:04:41.554Z,5.13
2023-04-19T22:07:08.101Z,5.43
2023-04-19T22:09:34.459Z,3.50
2023-04-19T22:12:01.175Z,3.05
2023-04-19T22:14:27.791Z,3.70
2023-04-19T22:16:54.275Z,4.50
2023-04-19T22:19:21.073Z,4.20
2023-04-19T22:21:47.516Z,5.13
2023-04-19T22:24:14.009Z,4.47
2023-04-19T22:26:40.763Z,4.63
2023-04-19T22:29:07.182Z,4.05
2023-04-19T22:31:33.610Z,4.25
2023-04-19T22:34:00.041Z,4.00
2023-04-19T22:36:26.447Z,4.68
2023-04-19T22:38:52.842Z,5.57
2023-04-19T22:41:19.251Z,4.95
2023-04-19T22:43:45.668Z,4.60
2023-04-19T22:46:12.827Z,5.20
2023-04-19T22:48:39.245Z,4.93
2023-04-19T22:51:06.440Z,4.17
2023-04-19T22:53:32.827Z,4.95
2023-04-19T22:55:59.194Z,3.67
2023-04-19T22:58:25.572Z,4.55
2023-04-19T23:00:52.460Z,4.25
2023-04-19T23:03:18.887Z,3.93
2023-04-19T23:05:47.196Z,3.83
2023-04-19T23:08:15.049Z,4.72
2023-04-19T23:10:42.289Z,4.43
2023-04-19T23:13:10.303Z,3.90
2023-04-19T23:15:37.513Z,5.63
2023-04-19T23:18:04.260Z,3.30
2023-04-19T23:20:30.749Z,4.05
2023-04-19T23:22:57.308Z,4.25
2023-04-19T23:25:24.634Z,4.43
2023-04-19T23:27:51.189Z,4.90
2023-04-19T23:30:18.246Z,3.20
2023-04-19T23:32:44.784Z,5.13
2023-04-19T23:35:11.316Z,4.82
2023-04-19T23:37:37.935Z,5.28
2023-04-19T23:40:06.224Z,8.50
2023-04-19T23:42:32.653Z,5.40
2023-04-19T23:44:59.179Z,3.90
2023-04-19T23:47:25.644Z,4.97
2023-04-19T23:49:52.008Z,4.43
2023-04-19T23:52:18.624Z,4.27
2023-04-19T23:54:45.195Z,4.13
2023-04-19T23:57:11.549Z,7.00
2023-04-19T23:59:37.923Z,4.28
